logo
Search for airport 
image banner adimage banner adimage banner ad
image banner ad

FLLR - Luelo

Located in , Zambia

ICAO - , IATA -

Data provided by Airmate  

General information

Coordinates: S11°53'2" E32°33'50"
Elevation is 2088 feet MSL.
 
View others Airports in Northern Province

Operational data

Special qualification required
Current time UTC:
Current local time:
Weather at : - ( 0 km )
METAR: CYPO 130553Z AUTO 34008G16KT 310V010 2 1/2SM -FZRA BR OVC004 M04/M05 A2991 RMK ICE SLP135
View NOTAMs / SUP AIP / TFR affecting this airport [VIEW]
Communications frequencies: [VIEW]

Runways:

Airport contact information

Address: Zambia

Satellite view of FLLR